Time;durP1;ratioP1;P1;durP2;ratioP2;P2;SDS_P1;SDS_P2;PMS_P1;PMS_P2;Temp;Humidity;BMP_temperature;BMP_pressure;BME280_temperature;BME280_humidity;BME280_pressure;Samples;Min_cycle;Max_cycle;Signal;HPM_P1;HPM_P2
2022/09/01 00:01:49;;;;;;;5.38;1.50;;;16.10;99.90;;;;;;5095818;28;20041;-87
2022/09/01 00:04:37;;;;;;;5.70;1.40;;;16.10;99.90;;;;;;5092542;28;20060;-87
2022/09/01 00:07:26;;;;;;;3.78;1.20;;;16.00;99.90;;;;;;5090433;28;20102;-82
2022/09/01 00:10:12;;;;;;;5.43;1.63;;;16.00;99.90;;;;;;5091744;28;20040;-85
2022/09/01 00:12:58;;;;;;;4.82;1.50;;;16.00;99.90;;;;;;5089381;28;20534;-81
2022/09/01 00:15:45;;;;;;;3.58;1.50;;;15.90;99.90;;;;;;5090318;28;20044;-81
2022/09/01 00:18:32;;;;;;;4.47;1.17;;;15.80;99.90;;;;;;5091039;28;20136;-82
2022/09/01 00:21:22;;;;;;;3.72;1.00;;;15.80;99.90;;;;;;5072758;28;20048;-80
2022/09/01 00:24:09;;;;;;;2.65;0.93;;;15.80;99.90;;;;;;5072149;28;20499;-82
2022/09/01 00:26:55;;;;;;;3.45;1.10;;;15.80;99.90;;;;;;5088903;28;20431;-83
2022/09/01 00:29:42;;;;;;;3.97;1.10;;;15.70;99.90;;;;;;5093280;28;20044;-83
2022/09/01 00:32:28;;;;;;;2.78;0.90;;;15.70;99.90;;;;;;5093147;28;20059;-82
2022/09/01 00:35:16;;;;;;;4.28;0.70;;;15.60;99.90;;;;;;5083216;28;20529;-83
2022/09/01 00:38:03;;;;;;;4.47;0.80;;;15.60;99.90;;;;;;5090092;28;20438;-82
2022/09/01 00:40:49;;;;;;;3.90;0.65;;;15.60;99.90;;;;;;5093621;28;20116;-82
2022/09/01 00:43:48;;;;;;;4.07;1.35;;;15.60;99.90;;;;;;5093628;28;20048;-81
2022/09/01 00:46:38;;;;;;;4.00;0.98;;;15.50;99.90;;;;;;5091524;28;20048;-82
2022/09/01 00:49:29;;;;;;;2.63;0.80;;;15.50;99.90;;;;;;5091447;28;20102;-81
2022/09/01 00:52:32;;;;;;;1.67;0.70;;;15.50;99.90;;;;;;5095765;28;20095;-82
2022/09/01 00:55:25;;;;;;;2.60;0.63;;;15.40;99.90;;;;;;5085017;28;20047;-86
2022/09/01 00:58:12;;;;;;;3.42;0.70;;;15.40;99.90;;;;;;5091322;28;20040;-80
2022/09/01 01:00:58;;;;;;;3.17;0.80;;;15.40;99.90;;;;;;5091161;28;20051;-82
2022/09/01 01:03:45;;;;;;;5.82;1.13;;;15.40;99.90;;;;;;5093126;28;20052;-81
2022/09/01 01:06:32;;;;;;;3.33;0.70;;;15.30;99.90;;;;;;5093921;28;20066;-82
2022/09/01 01:09:20;;;;;;;2.97;1.00;;;15.30;99.90;;;;;;5077095;28;20044;-86
2022/09/01 01:12:17;;;;;;;3.40;1.00;;;15.30;99.90;;;;;;5092194;28;20070;-81
2022/09/01 01:15:05;;;;;;;3.10;0.80;;;15.20;99.90;;;;;;5091955;28;20040;-85
2022/09/01 01:17:52;;;;;;;2.33;0.85;;;15.20;99.90;;;;;;5093035;28;20140;-83
2022/09/01 01:23:55;;;;;;;2.73;0.80;;;15.20;99.90;;;;;;5093550;28;20052;-85
2022/09/01 01:26:41;;;;;;;2.08;0.80;;;15.10;99.90;;;;;;5093969;28;20283;-82
2022/09/01 01:29:32;;;;;;;2.83;0.80;;;15.10;99.90;;;;;;5094393;28;20181;-83
2022/09/01 01:32:19;;;;;;;4.05;0.95;;;15.10;99.90;;;;;;5092586;28;20189;-86
2022/09/01 01:35:06;;;;;;;3.28;0.77;;;15.10;99.90;;;;;;5095366;28;20065;-80
2022/09/01 01:37:53;;;;;;;3.03;0.70;;;15.10;99.90;;;;;;5091767;28;20052;-84
2022/09/01 01:40:40;;;;;;;3.63;0.80;;;15.10;99.90;;;;;;5093527;28;20113;-85
2022/09/01 01:43:27;;;;;;;4.82;0.88;;;15.10;99.90;;;;;;5092338;28;20048;-82
2022/09/01 01:46:17;;;;;;;1.90;0.70;;;15.10;99.90;;;;;;5093682;28;20073;-81
2022/09/01 01:49:04;;;;;;;3.15;0.70;;;15.20;99.90;;;;;;5094116;28;20498;-84
2022/09/01 01:51:55;;;;;;;6.30;1.15;;;15.20;99.90;;;;;;5092435;28;20132;-82
2022/09/01 01:54:44;;;;;;;2.85;0.88;;;15.20;99.90;;;;;;5092659;28;20499;-85
2022/09/01 01:57:31;;;;;;;1.80;0.77;;;15.20;99.90;;;;;;5076911;28;20062;-87
2022/09/01 02:00:23;;;;;;;2.85;0.85;;;15.20;99.90;;;;;;5093999;28;20380;-81
2022/09/01 02:03:11;;;;;;;4.43;0.75;;;15.20;99.90;;;;;;5092254;28;20561;-83
2022/09/01 02:06:00;;;;;;;3.25;0.70;;;15.20;99.90;;;;;;5090856;28;20048;-84
2022/09/01 02:08:46;;;;;;;4.20;1.10;;;15.20;99.90;;;;;;5090300;28;20052;-81
2022/09/01 02:11:36;;;;;;;1.85;0.63;;;15.20;99.90;;;;;;5092052;28;20043;-81
2022/09/01 02:14:23;;;;;;;4.60;0.70;;;15.20;99.90;;;;;;5093029;28;20128;-82
2022/09/01 02:17:09;;;;;;;1.83;0.50;;;15.20;99.90;;;;;;5092923;28;20142;-84
2022/09/01 02:19:56;;;;;;;1.83;0.50;;;15.20;99.90;;;;;;5092443;28;20045;-87
2022/09/01 02:22:43;;;;;;;2.60;0.60;;;15.20;99.90;;;;;;5092525;28;20079;-83
2022/09/01 02:25:30;;;;;;;2.17;0.77;;;15.30;99.90;;;;;;5089627;28;20059;-82
2022/09/01 02:28:18;;;;;;;1.98;0.47;;;15.30;99.90;;;;;;5091708;28;20047;-81
2022/09/01 02:31:07;;;;;;;3.05;0.93;;;15.30;99.90;;;;;;5073838;28;20128;-82
2022/09/01 02:33:54;;;;;;;7.00;1.02;;;15.30;99.90;;;;;;5073272;28;20051;-83
2022/09/01 02:36:46;;;;;;;2.72;1.08;;;15.30;99.90;;;;;;5091459;28;20047;-81
2022/09/01 02:39:33;;;;;;;3.92;0.82;;;15.30;99.90;;;;;;5076220;28;20048;-83
2022/09/01 02:42:26;;;;;;;2.50;0.70;;;15.40;99.90;;;;;;5092456;28;20052;-82
2022/09/01 02:45:15;;;;;;;2.03;0.73;;;15.40;99.90;;;;;;5091557;28;20040;-81
2022/09/01 02:48:01;;;;;;;2.58;1.08;;;15.40;99.90;;;;;;5090739;28;20036;-84
2022/09/01 02:50:48;;;;;;;1.90;0.80;;;15.40;99.90;;;;;;5072258;28;20101;-82
2022/09/01 02:53:35;;;;;;;5.03;1.20;;;15.40;99.90;;;;;;5089229;28;20087;-82
2022/09/01 02:56:26;;;;;;;5.38;1.05;;;15.40;99.90;;;;;;5090897;28;20495;-81
2022/09/01 02:59:14;;;;;;;3.58;0.88;;;15.50;99.90;;;;;;5079263;28;20097;-82
2022/09/01 03:02:00;;;;;;;3.28;1.00;;;15.40;99.90;;;;;;5080915;28;20055;-82
2022/09/01 03:04:49;;;;;;;5.47;1.08;;;15.50;99.90;;;;;;5074118;28;20044;-84
2022/09/01 03:07:35;;;;;;;2.17;0.75;;;15.40;99.90;;;;;;5091420;28;20070;-81
2022/09/01 03:10:31;;;;;;;2.55;1.00;;;15.40;99.90;;;;;;5090294;28;20047;-85
2022/09/01 03:13:20;;;;;;;2.47;1.30;;;15.40;99.90;;;;;;5090258;28;20063;-81
2022/09/01 03:16:08;;;;;;;7.10;1.00;;;15.50;99.90;;;;;;5090394;28;20048;-81
2022/09/01 03:18:54;;;;;;;3.40;0.63;;;15.40;99.90;;;;;;5061565;28;20051;-79
2022/09/01 03:21:43;;;;;;;3.25;0.88;;;15.40;99.90;;;;;;5090645;28;20052;-81
2022/09/01 03:24:29;;;;;;;6.13;0.80;;;15.40;99.90;;;;;;5090169;28;20075;-81
2022/09/01 03:27:15;;;;;;;3.50;0.93;;;15.40;99.90;;;;;;5552979;22;20071;-82
2022/09/01 03:30:05;;;;;;;2.53;0.98;;;15.40;99.90;;;;;;5053252;28;20053;-80
2022/09/01 03:32:52;;;;;;;4.50;0.98;;;15.40;99.90;;;;;;5026089;28;20057;-82
2022/09/01 03:35:38;;;;;;;2.40;0.95;;;15.40;99.90;;;;;;5071935;28;20048;-82
2022/09/01 03:38:25;;;;;;;1.63;0.73;;;15.40;99.90;;;;;;5073199;28;20049;-80
2022/09/01 03:41:11;;;;;;;2.20;0.85;;;15.40;99.90;;;;;;5073533;28;20131;-83
2022/09/01 03:43:58;;;;;;;3.05;0.70;;;15.40;99.90;;;;;;5072870;28;20048;-82
2022/09/01 03:46:46;;;;;;;3.35;0.80;;;15.30;99.90;;;;;;5071585;28;20052;-81
2022/09/01 03:49:32;;;;;;;2.42;1.00;;;15.30;99.90;;;;;;5071267;28;20044;-83
2022/09/01 03:52:18;;;;;;;2.47;0.80;;;15.30;99.90;;;;;;5059265;28;20044;-82
2022/09/01 03:55:05;;;;;;;3.33;0.70;;;15.30;99.90;;;;;;5054117;28;20442;-82
2022/09/01 03:57:53;;;;;;;3.40;0.75;;;15.20;99.90;;;;;;5070625;28;20056;-85
2022/09/01 04:00:42;;;;;;;3.63;0.68;;;15.20;99.90;;;;;;5069783;28;20516;-85
2022/09/01 04:03:32;;;;;;;4.03;0.82;;;15.10;99.90;;;;;;5070817;28;20054;-81
2022/09/01 04:06:22;;;;;;;4.35;1.17;;;15.10;99.90;;;;;;5054640;28;20056;-83
2022/09/01 04:09:09;;;;;;;2.15;0.70;;;15.00;99.90;;;;;;5072149;28;20045;-82
2022/09/01 04:11:55;;;;;;;6.93;1.00;;;15.00;99.90;;;;;;5052584;28;20484;-81
2022/09/01 04:14:41;;;;;;;3.88;0.85;;;15.00;99.90;;;;;;5052799;28;20052;-83
2022/09/01 04:20:38;;;;;;;2.10;0.73;;;14.90;99.90;;;;;;5052468;28;20052;-82
2022/09/01 04:23:37;;;;;;;3.63;0.80;;;14.80;99.90;;;;;;5054475;28;20544;-83
2022/09/01 04:26:25;;;;;;;2.38;1.00;;;14.80;99.90;;;;;;5056981;28;20063;-80
2022/09/01 04:29:11;;;;;;;2.78;0.80;;;14.80;99.90;;;;;;5052237;28;20436;-82
2022/09/01 04:32:06;;;;;;;2.17;0.95;;;14.70;99.90;;;;;;5051272;28;20190;-83
2022/09/01 04:34:52;;;;;;;3.22;0.80;;;14.70;99.90;;;;;;5050035;28;20049;-81
2022/09/01 04:37:39;;;;;;;2.45;0.93;;;14.70;99.90;;;;;;5051783;28;20073;-82
2022/09/01 04:40:26;;;;;;;3.15;1.00;;;14.60;99.90;;;;;;5051629;28;20067;-82
2022/09/01 04:43:12;;;;;;;4.00;1.30;;;14.60;99.90;;;;;;5050558;28;20094;-82
2022/09/01 04:45:58;;;;;;;3.97;1.33;;;14.60;99.90;;;;;;5050720;28;20067;-83
2022/09/01 04:48:46;;;;;;;2.80;1.23;;;14.60;99.90;;;;;;5049325;28;20130;-80
2022/09/01 04:51:32;;;;;;;3.15;0.95;;;14.60;99.90;;;;;;5019323;28;20041;-82
2022/09/01 04:54:19;;;;;;;2.58;1.10;;;14.60;99.90;;;;;;5032526;28;20041;-81
2022/09/01 04:57:06;;;;;;;4.63;1.10;;;14.70;99.90;;;;;;5049763;28;20416;-81
2022/09/01 04:59:55;;;;;;;3.15;1.08;;;14.70;99.90;;;;;;5050723;28;20049;-82
2022/09/01 05:02:44;;;;;;;5.65;1.08;;;14.70;99.90;;;;;;5019417;28;20047;-83
2022/09/01 05:05:43;;;;;;;6.78;1.23;;;14.80;99.90;;;;;;5051308;28;20049;-83
2022/09/01 05:08:34;;;;;;;4.57;1.35;;;14.80;99.90;;;;;;5020366;28;20128;-81
2022/09/01 05:11:20;;;;;;;3.15;1.00;;;14.80;99.90;;;;;;5033525;28;20099;-81
2022/09/01 05:14:06;;;;;;;6.00;1.20;;;14.80;99.90;;;;;;5053600;28;20049;-80
2022/09/01 05:16:57;;;;;;;3.38;1.27;;;14.80;99.90;;;;;;5055866;28;20041;-80
2022/09/01 05:19:47;;;;;;;3.20;0.90;;;14.80;99.90;;;;;;5057414;28;20077;-82
2022/09/01 05:22:34;;;;;;;2.67;1.10;;;14.80;99.90;;;;;;5057411;28;20060;-81
2022/09/01 05:25:22;;;;;;;4.07;0.90;;;14.90;99.90;;;;;;5053713;28;20053;-80
2022/09/01 05:28:11;;;;;;;2.47;1.02;;;14.90;99.90;;;;;;5033306;28;20057;-82
2022/09/01 05:30:59;;;;;;;2.97;1.15;;;14.90;99.90;;;;;;5020291;28;20446;-82
2022/09/01 05:33:49;;;;;;;2.78;1.10;;;14.90;99.90;;;;;;5022556;28;20151;-83
2022/09/01 05:36:39;;;;;;;4.82;1.20;;;14.90;99.90;;;;;;5039403;28;20058;-82
2022/09/01 05:39:26;;;;;;;2.97;1.20;;;15.10;99.90;;;;;;5036911;28;20046;-80
2022/09/01 05:42:12;;;;;;;4.28;0.90;;;15.10;99.90;;;;;;5036571;28;20092;-80
2022/09/01 05:45:01;;;;;;;2.92;0.93;;;15.10;99.90;;;;;;5019655;28;20084;-82
2022/09/01 05:47:47;;;;;;;3.17;1.10;;;15.20;99.90;;;;;;5023056;28;20408;-84
2022/09/01 05:50:34;;;;;;;2.95;1.23;;;15.30;99.90;;;;;;5018674;28;20099;-80
2022/09/01 05:53:24;;;;;;;2.53;0.90;;;15.30;99.90;;;;;;5022385;28;20053;-82
2022/09/01 05:56:13;;;;;;;2.13;0.90;;;15.40;99.90;;;;;;5038287;28;20050;-80
2022/09/01 05:59:01;;;;;;;3.85;0.90;;;15.40;99.90;;;;;;5037582;28;20060;-79
2022/09/01 06:01:47;;;;;;;4.18;0.70;;;15.50;99.90;;;;;;5017685;28;20053;-82
2022/09/01 06:04:37;;;;;;;4.03;1.20;;;15.60;99.90;;;;;;5041728;28;20080;-87
2022/09/01 06:07:27;;;;;;;3.95;1.00;;;15.70;99.90;;;;;;5021777;28;20126;-88
2022/09/01 06:10:14;;;;;;;2.97;1.08;;;15.80;99.90;;;;;;5021928;28;20041;-85
2022/09/01 06:13:01;;;;;;;2.90;0.88;;;15.80;99.90;;;;;;5017977;28;20052;-85
2022/09/01 06:15:49;;;;;;;3.22;1.30;;;15.90;99.90;;;;;;5016260;28;20073;-83
2022/09/01 06:18:35;;;;;;;2.08;0.88;;;15.90;99.90;;;;;;5021178;28;20053;-85
2022/09/01 06:21:23;;;;;;;2.95;0.90;;;16.00;99.90;;;;;;5037420;28;20110;-82
2022/09/01 06:24:09;;;;;;;5.18;0.90;;;16.10;99.90;;;;;;5018996;28;20057;-81
2022/09/01 06:26:56;;;;;;;4.00;1.02;;;16.20;99.90;;;;;;5021218;28;20060;-85
2022/09/01 06:29:44;;;;;;;2.30;0.80;;;16.30;99.90;;;;;;5039230;28;20049;-84
2022/09/01 06:32:32;;;;;;;1.95;0.70;;;16.30;99.90;;;;;;5036418;28;20048;-83
2022/09/01 06:35:20;;;;;;;3.47;1.00;;;16.40;99.90;;;;;;5054746;28;20249;-81
2022/09/01 06:38:08;;;;;;;2.03;0.93;;;16.50;99.90;;;;;;5052836;28;20182;-81
2022/09/01 06:41:11;;;;;;;3.45;1.00;;;16.50;99.90;;;;;;5020386;28;20048;-82
2022/09/01 06:44:00;;;;;;;4.35;0.93;;;16.60;99.90;;;;;;5052622;28;20048;-82
2022/09/01 06:46:47;;;;;;;4.68;0.80;;;16.70;99.90;;;;;;5051851;28;20048;-84
2022/09/01 06:49:33;;;;;;;3.00;0.70;;;16.70;99.90;;;;;;5037256;28;20114;-83
2022/09/01 06:52:22;;;;;;;2.30;0.88;;;16.80;99.90;;;;;;5051645;28;20052;-86
2022/09/01 06:55:13;;;;;;;1.70;0.80;;;16.90;99.90;;;;;;5052037;28;20455;-82
2022/09/01 06:58:00;;;;;;;4.65;1.20;;;17.00;99.90;;;;;;5034927;28;20056;-82
2022/09/01 07:00:48;;;;;;;3.08;0.80;;;17.00;99.90;;;;;;5053436;28;20053;-82
2022/09/01 07:03:35;;;;;;;2.40;1.00;;;17.10;99.90;;;;;;5037861;28;20090;-82
2022/09/01 07:06:29;;;;;;;3.33;0.70;;;17.20;99.90;;;;;;5057062;28;20485;-81
2022/09/01 07:09:17;;;;;;;3.33;0.90;;;17.20;99.90;;;;;;5038388;28;20052;-81
2022/09/01 07:12:03;;;;;;;1.92;0.95;;;17.30;99.90;;;;;;5054044;28;20210;-83
2022/09/01 07:14:51;;;;;;;4.95;1.02;;;17.40;99.90;;;;;;5039017;28;20084;-83
2022/09/01 07:17:40;;;;;;;2.03;0.75;;;17.50;99.90;;;;;;5052184;28;20045;-81
2022/09/01 07:20:32;;;;;;;2.42;0.60;;;17.60;99.90;;;;;;5053268;28;20517;-82
2022/09/01 07:23:19;;;;;;;2.85;0.70;;;17.70;99.90;;;;;;5050768;28;20037;-82
2022/09/01 07:26:06;;;;;;;2.80;1.00;;;17.70;99.90;;;;;;5051776;28;20048;-82
2022/09/01 07:28:53;;;;;;;2.03;0.80;;;17.90;99.90;;;;;;5053284;28;20115;-81
2022/09/01 07:31:42;;;;;;;4.65;0.95;;;17.90;99.90;;;;;;5052339;28;20099;-82
2022/09/01 07:34:29;;;;;;;3.40;0.77;;;18.00;99.90;;;;;;5034811;28;20048;-83
2022/09/01 07:37:16;;;;;;;6.53;1.08;;;18.10;99.90;;;;;;5052581;28;20049;-81
2022/09/01 07:40:08;;;;;;;3.25;0.88;;;18.20;99.90;;;;;;5052586;28;20081;-82
2022/09/01 07:42:56;;;;;;;3.00;1.20;;;18.20;99.90;;;;;;5019781;28;20056;-81
2022/09/01 07:45:47;;;;;;;4.05;0.95;;;18.30;99.90;;;;;;5052762;28;20087;-83
2022/09/01 07:48:34;;;;;;;2.72;0.85;;;18.40;99.90;;;;;;5052712;28;20552;-83
2022/09/01 07:51:21;;;;;;;3.63;0.85;;;18.60;99.90;;;;;;5053410;28;20080;-83
2022/09/01 07:54:10;;;;;;;2.30;0.88;;;19.00;99.90;;;;;;5034289;28;20088;-87
2022/09/01 07:57:00;;;;;;;2.50;0.82;;;19.30;99.90;;;;;;5034234;28;20103;-82
2022/09/01 07:59:46;;;;;;;4.00;0.77;;;19.40;99.90;;;;;;5051698;28;20044;-85
2022/09/01 08:02:33;;;;;;;2.03;0.70;;;19.60;99.90;;;;;;5050671;28;20496;-84
2022/09/01 08:05:25;;;;;;;3.58;0.85;;;19.80;99.90;;;;;;5034116;28;20095;-83
2022/09/01 08:08:12;;;;;;;3.90;0.60;;;20.10;99.90;;;;;;5033375;28;20053;-80
2022/09/01 08:10:58;;;;;;;2.90;0.98;;;20.20;99.90;;;;;;5053161;28;20049;-83
2022/09/01 08:13:46;;;;;;;4.10;1.00;;;20.10;99.90;;;;;;5052726;28;20148;-81
2022/09/01 08:16:32;;;;;;;2.58;0.70;;;20.20;99.90;;;;;;5051999;28;20405;-81
2022/09/01 08:19:18;;;;;;;3.83;1.13;;;20.30;99.90;;;;;;5052720;28;20101;-82
2022/09/01 08:22:04;;;;;;;2.92;1.10;;;20.40;99.90;;;;;;5034964;28;20060;-80
2022/09/01 08:24:52;;;;;;;6.07;1.23;;;20.50;99.90;;;;;;5032910;28;20053;-80
2022/09/01 08:27:38;;;;;;;2.72;0.80;;;20.70;99.90;;;;;;5033769;28;20510;-82
2022/09/01 08:30:24;;;;;;;4.15;1.02;;;20.80;99.90;;;;;;5050675;28;20687;-83
2022/09/01 08:33:11;;;;;;;2.22;0.85;;;21.00;99.90;;;;;;5051161;28;20505;-85
2022/09/01 08:35:57;;;;;;;1.95;0.60;;;21.30;99.10;;;;;;5034058;28;20050;-83
2022/09/01 08:38:44;;;;;;;3.38;0.75;;;21.60;98.80;;;;;;5050900;28;20049;-83
2022/09/01 08:41:42;;;;;;;2.20;0.60;;;21.80;98.30;;;;;;5051209;28;20045;-83
2022/09/01 08:45:02;;;;;;;5.00;1.00;;;22.00;97.30;;;;;;5050416;28;20053;-85
2022/09/01 08:47:52;;;;;;;3.22;0.70;;;21.90;97.00;;;;;;5057969;28;20044;-82
2022/09/01 08:50:41;;;;;;;2.83;0.80;;;21.90;97.70;;;;;;5054288;28;20055;-81
2022/09/01 08:53:34;;;;;;;3.22;1.08;;;22.10;97.30;;;;;;5037417;28;20059;-85
2022/09/01 08:56:22;;;;;;;2.50;0.80;;;22.10;96.70;;;;;;5054370;28;20190;-84
2022/09/01 08:59:09;;;;;;;2.47;0.70;;;22.10;97.10;;;;;;5053801;28;20113;-85
2022/09/01 09:01:58;;;;;;;2.70;0.60;;;21.90;97.20;;;;;;5054756;28;20049;-83
2022/09/01 09:05:12;;;;;;;2.30;0.70;;;21.90;97.50;;;;;;5040574;28;20210;-84
2022/09/01 09:08:28;;;;;;;2.28;0.68;;;21.80;96.90;;;;;;5057923;28;20041;-85
2022/09/01 09:11:20;;;;;;;3.17;1.00;;;21.70;97.00;;;;;;5037163;28;20052;-82
2022/09/01 09:14:18;;;;;;;4.05;0.88;;;21.70;97.30;;;;;;5036465;28;20095;-81
2022/09/01 09:17:06;;;;;;;3.72;1.10;;;21.80;97.20;;;;;;5037903;28;20064;-82
2022/09/01 09:19:53;;;;;;;1.80;0.65;;;21.90;97.60;;;;;;5041224;28;20045;-88
2022/09/01 09:22:40;;;;;;;4.68;0.80;;;22.10;97.70;;;;;;5055605;28;20095;-87
2022/09/01 09:25:28;;;;;;;2.05;0.68;;;22.50;97.70;;;;;;5053774;28;20049;-85
2022/09/01 09:28:14;;;;;;;4.07;0.80;;;22.60;97.00;;;;;;5054356;28;20795;-83
2022/09/01 09:31:28;;;;;;;4.07;0.77;;;22.80;96.80;;;;;;5055488;28;20045;-81
2022/09/01 09:34:22;;;;;;;2.00;0.55;;;23.00;96.10;;;;;;5056312;28;20053;-83
2022/09/01 09:37:23;;;;;;;3.80;0.90;;;23.10;96.00;;;;;;5054147;28;20053;-87
2022/09/01 09:40:13;;;;;;;3.97;0.63;;;23.40;96.00;;;;;;5053973;28;20152;-84
2022/09/01 09:43:04;;;;;;;3.42;0.60;;;23.50;96.20;;;;;;5052616;28;20048;-86
2022/09/01 09:46:20;;;;;;;2.33;0.77;;;24.00;95.50;;;;;;5039411;28;20405;-79
2022/09/01 09:49:15;;;;;;;3.22;0.80;;;24.30;93.90;;;;;;5053939;28;20041;-83
2022/09/01 09:52:01;;;;;;;5.05;0.57;;;24.50;94.70;;;;;;5052764;28;20497;-89
2022/09/01 09:55:02;;;;;;;4.40;0.60;;;24.60;94.30;;;;;;5022229;28;20814;-82
2022/09/01 09:57:51;;;;;;;3.60;0.90;;;24.70;93.70;;;;;;5052642;28;20479;-82
2022/09/01 10:00:38;;;;;;;4.32;1.02;;;24.90;93.70;;;;;;5053314;28;20292;-82
2022/09/01 10:03:50;;;;;;;2.17;0.55;;;24.50;94.00;;;;;;5036687;28;20056;-87
2022/09/01 10:06:44;;;;;;;2.55;0.60;;;24.70;94.00;;;;;;5052945;28;20404;-88
2022/09/01 10:09:30;;;;;;;5.47;1.00;;;24.50;94.00;;;;;;5053937;28;20045;-87
2022/09/01 10:12:17;;;;;;;2.42;0.60;;;24.10;94.40;;;;;;5054324;28;20456;-80
2022/09/01 10:15:09;;;;;;;3.38;0.70;;;24.10;94.70;;;;;;5053384;28;20574;-80
2022/09/01 10:18:00;;;;;;;2.35;0.55;;;24.40;94.50;;;;;;5055126;28;20059;-83
2022/09/01 10:21:14;;;;;;;1.65;0.45;;;24.70;94.30;;;;;;5052599;28;20516;-81
2022/09/01 10:24:21;;;;;;;2.83;0.50;;;25.00;93.60;;;;;;5052674;28;20476;-84
2022/09/01 10:27:17;;;;;;;2.17;0.88;;;25.00;93.70;;;;;;5038251;28;20044;-83
2022/09/01 10:30:15;;;;;;;2.20;0.55;;;25.00;93.60;;;;;;5052599;28;20056;-82
2022/09/01 10:33:03;;;;;;;1.98;0.57;;;25.20;93.30;;;;;;5052642;28;20562;-82
2022/09/01 10:35:53;;;;;;;2.03;0.60;;;25.00;92.60;;;;;;5035528;28;20199;-86
2022/09/01 10:38:41;;;;;;;1.48;0.50;;;24.50;91.90;;;;;;5052071;28;20079;-84
2022/09/01 10:42:03;;;;;;;2.10;0.30;;;24.10;92.80;;;;;;5053985;28;20048;-84
2022/09/01 10:44:57;;;;;;;1.67;0.55;;;24.30;91.90;;;;;;5052135;28;20048;-84
2022/09/01 10:47:44;;;;;;;3.13;0.73;;;24.10;91.80;;;;;;5054102;28;20057;-84
2022/09/01 10:50:31;;;;;;;2.58;0.57;;;24.00;92.10;;;;;;5056505;28;20131;-83
2022/09/01 10:53:33;;;;;;;2.78;0.60;;;24.00;92.20;;;;;;5037734;28;20049;-93
2022/09/01 10:56:43;;;;;;;1.73;0.55;;;24.30;92.30;;;;;;5020868;28;20061;-88
2022/09/01 10:59:29;;;;;;;3.13;0.80;;;24.50;92.50;;;;;;5053337;28;20049;-89
2022/09/01 11:02:17;;;;;;;3.45;0.50;;;25.00;92.30;;;;;;5053661;28;20481;-82
2022/09/01 11:05:09;;;;;;;3.13;0.77;;;25.60;91.80;;;;;;5034625;28;20049;-86
2022/09/01 11:07:58;;;;;;;1.92;0.47;;;26.00;91.60;;;;;;5038457;28;20052;-81
2022/09/01 11:11:08;;;;;;;2.05;0.50;;;26.50;91.00;;;;;;5051908;28;20505;-86
2022/09/01 11:13:57;;;;;;;2.53;0.75;;;26.90;90.30;;;;;;5021852;28;20605;-92
2022/09/01 11:17:09;;;;;;;3.42;0.80;;;27.40;89.70;;;;;;5054653;28;20045;-85
2022/09/01 11:20:21;;;;;;;1.92;0.50;;;27.40;88.00;;;;;;5053804;28;20061;-81
2022/09/01 11:23:29;;;;;;;1.67;0.45;;;27.40;86.70;;;;;;5045595;28;20131;-86
2022/09/01 11:26:36;;;;;;;1.33;0.50;;;26.90;86.40;;;;;;5055262;28;20404;-89
2022/09/01 11:29:53;;;;;;;4.38;0.55;;;26.50;84.60;;;;;;5057629;28;20063;-88
2022/09/01 11:32:41;;;;;;;1.25;0.45;;;26.30;85.80;;;;;;5058777;28;20057;-88
2022/09/01 11:35:28;;;;;;;1.70;0.50;;;26.10;87.00;;;;;;5053758;28;20056;-84
2022/09/01 11:38:17;;;;;;;1.83;0.60;;;25.70;87.40;;;;;;5051528;28;20049;-82
2022/09/01 11:41:03;;;;;;;3.33;0.70;;;25.80;88.20;;;;;;5052737;28;20109;-82
2022/09/01 11:43:53;;;;;;;5.32;0.65;;;26.30;88.20;;;;;;5038052;28;20063;-92
2022/09/01 11:46:42;;;;;;;3.22;0.50;;;26.80;87.20;;;;;;5036771;28;20111;-84
2022/09/01 11:49:34;;;;;;;2.78;0.80;;;27.40;85.80;;;;;;5055735;28;20057;-80
2022/09/01 11:52:23;;;;;;;4.15;0.70;;;27.40;84.60;;;;;;5038552;28;20404;-78
2022/09/01 11:55:09;;;;;;;3.35;0.60;;;28.10;84.40;;;;;;5054214;28;20049;-87
2022/09/01 11:57:56;;;;;;;2.72;0.70;;;28.20;83.10;;;;;;5038459;28;20803;-83
2022/09/01 12:00:42;;;;;;;3.50;0.50;;;28.40;81.90;;;;;;5052409;28;20052;-82
2022/09/01 12:03:29;;;;;;;2.25;0.40;;;28.70;81.00;;;;;;5036972;28;20055;-83
2022/09/01 12:06:33;;;;;;;2.47;0.40;;;28.20;80.50;;;;;;5053409;28;20052;-87
2022/09/01 12:09:19;;;;;;;2.22;0.60;;;27.80;80.00;;;;;;5053740;28;20045;-83
2022/09/01 12:12:24;;;;;;;3.80;0.50;;;27.60;81.50;;;;;;5051814;28;20048;-83
2022/09/01 12:15:24;;;;;;;3.08;0.50;;;28.00;81.40;;;;;;5051158;28;20041;-82
2022/09/01 12:18:34;;;;;;;5.78;0.55;;;28.00;80.80;;;;;;5032279;28;20053;-83
2022/09/01 12:21:26;;;;;;;2.42;0.50;;;27.40;79.10;;;;;;5023014;28;20288;-82
2022/09/01 12:24:17;;;;;;;3.35;0.90;;;27.20;82.10;;;;;;5057207;28;20079;-82
2022/09/01 12:27:03;;;;;;;3.25;0.68;;;27.90;80.90;;;;;;5039590;28;20072;-80
2022/09/01 12:29:50;;;;;;;2.92;0.70;;;28.60;79.10;;;;;;5040056;28;20052;-83
2022/09/01 12:32:37;;;;;;;2.53;0.50;;;29.50;78.30;;;;;;5056124;28;20099;-81
2022/09/01 12:35:25;;;;;;;1.38;0.50;;;30.20;76.00;;;;;;5055452;28;20045;-87
2022/09/01 12:38:18;;;;;;;2.53;0.50;;;30.70;75.00;;;;;;5056653;28;20049;-80
2022/09/01 12:41:25;;;;;;;2.00;0.63;;;31.20;71.90;;;;;;5041472;28;20112;-81
2022/09/01 12:44:34;;;;;;;1.90;0.50;;;32.00;71.30;;;;;;5056260;28;20080;-84
2022/09/01 12:47:32;;;;;;;2.55;0.70;;;32.40;70.90;;;;;;5056108;28;20055;-88
2022/09/01 12:50:18;;;;;;;2.72;0.50;;;32.40;69.60;;;;;;5059359;28;20049;-81
2022/09/01 12:53:14;;;;;;;2.33;0.43;;;32.30;67.50;;;;;;5056888;28;20052;-82
2022/09/01 12:56:31;;;;;;;3.67;0.70;;;31.10;65.40;;;;;;5040178;28;20045;-85
2022/09/01 12:59:24;;;;;;;2.38;0.60;;;30.60;67.40;;;;;;5056973;28;20045;-84
2022/09/01 13:02:27;;;;;;;4.05;0.50;;;31.60;67.60;;;;;;5057443;28;20047;-82
2022/09/01 13:05:29;;;;;;;3.15;0.63;;;32.70;66.20;;;;;;5041523;28;20417;-81
2022/09/01 13:08:21;;;;;;;2.72;0.60;;;33.20;60.10;;;;;;5038142;28;20049;-89
2022/09/01 13:11:12;;;;;;;2.67;0.70;;;32.60;61.70;;;;;;5041770;28;20063;-81
2022/09/01 13:13:58;;;;;;;3.38;0.40;;;33.40;60.60;;;;;;5036359;28;20053;-83
2022/09/01 13:16:45;;;;;;;2.88;0.60;;;33.80;58.40;;;;;;5036379;28;20067;-83
2022/09/01 13:19:31;;;;;;;2.95;0.70;;;32.30;58.50;;;;;;5055232;28;20048;-80
2022/09/01 13:22:17;;;;;;;2.40;0.47;;;31.70;59.80;;;;;;5039716;28;20068;-80
2022/09/01 13:25:04;;;;;;;1.90;0.73;;;31.30;61.20;;;;;;5022654;28;20057;-81
2022/09/01 13:27:53;;;;;;;3.65;1.27;;;32.00;60.40;;;;;;5035877;28;20127;-86
2022/09/01 13:30:41;;;;;;;1.88;0.40;;;33.10;58.50;;;;;;5035930;28;20052;-86
2022/09/01 13:33:28;;;;;;;2.72;0.70;;;33.80;57.70;;;;;;5022182;28;20131;-90
2022/09/01 13:36:14;;;;;;;2.25;0.70;;;35.10;56.00;;;;;;5054145;28;20048;-80
2022/09/01 13:39:00;;;;;;;1.20;0.50;;;35.60;53.90;;;;;;5035484;28;20152;-81
2022/09/01 13:41:48;;;;;;;1.90;0.50;;;35.90;52.50;;;;;;5036898;28;20045;-80
2022/09/01 13:44:34;;;;;;;6.28;0.45;;;36.10;51.60;;;;;;5055999;28;20485;-83
2022/09/01 13:47:20;;;;;;;3.15;0.50;;;36.40;50.40;;;;;;5037824;28;20492;-86
2022/09/01 13:50:07;;;;;;;2.33;0.80;;;36.80;49.50;;;;;;5041657;28;20049;-84
2022/09/01 13:52:55;;;;;;;1.67;0.40;;;36.90;48.80;;;;;;5042144;28;20049;-82
2022/09/01 13:55:42;;;;;;;1.75;0.55;;;37.10;48.60;;;;;;5037153;28;20477;-89
2022/09/01 13:58:28;;;;;;;3.10;0.50;;;37.10;47.70;;;;;;5041027;28;20068;-81
2022/09/01 14:01:15;;;;;;;2.22;0.70;;;36.70;47.50;;;;;;5036089;28;20094;-84
2022/09/01 14:04:04;;;;;;;2.65;0.60;;;36.80;47.10;;;;;;5054684;28;20523;-85
2022/09/01 14:06:51;;;;;;;2.75;0.50;;;37.10;47.40;;;;;;5054884;28;20128;-84
2022/09/01 14:09:37;;;;;;;1.73;0.50;;;37.70;46.60;;;;;;5055402;28;20099;-83
2022/09/01 14:12:23;;;;;;;2.75;0.60;;;37.90;46.10;;;;;;5054297;28;20063;-82
2022/09/01 14:15:10;;;;;;;4.07;1.00;;;38.20;45.50;;;;;;5052766;28;20049;-81
2022/09/01 14:17:59;;;;;;;1.67;0.50;;;38.70;45.20;;;;;;5054305;28;20045;-83
2022/09/01 14:20:49;;;;;;;2.88;0.65;;;38.70;44.80;;;;;;5053904;28;20103;-82
2022/09/01 14:23:35;;;;;;;2.30;0.73;;;38.50;44.60;;;;;;5039969;28;20179;-81
2022/09/01 14:26:22;;;;;;;4.65;0.63;;;38.90;44.50;;;;;;5021270;28;20142;-82
2022/09/01 14:29:09;;;;;;;2.90;0.80;;;38.80;44.10;;;;;;5017241;28;20053;-85
2022/09/01 14:31:56;;;;;;;6.82;0.75;;;38.90;44.20;;;;;;5032672;28;20153;-84
2022/09/01 14:34:43;;;;;;;2.63;0.68;;;38.80;43.40;;;;;;5033750;28;20124;-81
2022/09/01 14:37:29;;;;;;;3.28;0.90;;;38.80;43.40;;;;;;5018465;28;20045;-81
2022/09/01 14:40:17;;;;;;;1.85;0.60;;;38.80;43.20;;;;;;5016183;28;20085;-82
2022/09/01 14:43:05;;;;;;;3.67;0.65;;;38.40;43.00;;;;;;5033018;28;20054;-88
2022/09/01 14:46:05;;;;;;;7.70;0.63;;;38.80;43.80;;;;;;5018444;28;20085;-84
2022/09/01 14:48:52;;;;;;;3.58;0.88;;;38.80;43.10;;;;;;5018541;28;20136;-85
2022/09/01 14:51:38;;;;;;;4.90;0.98;;;39.00;43.30;;;;;;5033273;28;20052;-85
2022/09/01 14:54:24;;;;;;;6.60;0.80;;;38.90;42.90;;;;;;5017917;28;20063;-83